Time;durP1;ratioP1;P1;durP2;ratioP2;P2;SDS_P1;SDS_P2;PMS_P1;PMS_P2;Temp;Humidity;BMP_temperature;BMP_pressure;BME280_temperature;BME280_humidity;BME280_pressure;Samples;Min_cycle;Max_cycle;Signal;HPM_P1;HPM_P2
2022/01/02 00:01:53;;;;;;;3.38;3.17;;;;;;;-4.17;76.01;99121.34;6208231;22;20073;-72
2022/01/02 00:05:08;;;;;;;3.85;3.65;;;;;;;-4.19;76.42;99101.84;6238604;22;20034;-71
2022/01/02 00:08:20;;;;;;;3.67;3.47;;;;;;;-4.29;77.35;99112.06;6239670;22;20085;-72
2022/01/02 00:11:22;;;;;;;3.30;3.00;;;;;;;-4.22;77.73;99121.38;6196658;22;20026;-70
2022/01/02 00:14:08;;;;;;;3.30;3.10;;;;;;;-4.30;78.75;99125.69;6186470;22;20030;-71
2022/01/02 00:16:55;;;;;;;3.72;3.53;;;;;;;-4.36;79.14;99130.81;6186199;22;20030;-71
2022/01/02 00:19:44;;;;;;;12.15;4.28;;;;;;;-4.23;78.56;99137.53;6186446;22;20379;-72
2022/01/02 00:22:37;;;;;;;4.20;3.80;;;;;;;-4.28;79.21;99138.38;6230862;22;20517;-71
2022/01/02 00:25:32;;;;;;;4.68;4.30;;;;;;;-4.32;79.88;99122.28;6207784;22;20439;-71
2022/01/02 00:28:16;;;;;;;5.80;2.97;;;;;;;-4.22;80.18;99159.56;6211713;22;20435;-71
2022/01/02 00:31:00;;;;;;;3.65;3.35;;;;;;;-4.23;80.26;99152.81;6273143;22;20042;-71
2022/01/02 00:33:45;;;;;;;3.85;3.60;;;;;;;-4.19;79.89;99153.63;6271273;22;20240;-71
2022/01/02 00:36:30;;;;;;;3.38;3.17;;;;;;;-4.21;79.68;99155.31;6249250;22;20077;-71
2022/01/02 00:39:14;;;;;;;4.32;4.03;;;;;;;-4.24;79.62;99145.16;6272331;22;20030;-71
2022/01/02 00:42:07;;;;;;;4.40;4.10;;;;;;;-4.18;78.82;99142.56;6273931;22;20093;-71
2022/01/02 00:45:24;;;;;;;4.18;3.95;;;;;;;-4.17;78.66;99136.63;6275776;22;20027;-72
2022/01/02 00:48:35;;;;;;;3.15;2.95;;;;;;;-4.18;78.45;99157.84;6235845;22;20034;-73
2022/01/02 00:51:46;;;;;;;3.53;3.33;;;;;;;-4.22;79.35;99151.06;6228413;22;20176;-71
2022/01/02 00:54:33;;;;;;;3.13;2.92;;;;;;;-4.22;77.93;99174.00;6207295;22;20070;-71
2022/01/02 00:57:19;;;;;;;3.60;3.30;;;;;;;-4.35;76.34;99160.50;6185619;22;20574;-71
2022/01/02 01:00:11;;;;;;;2.88;2.78;;;;;;;-4.38;76.93;99168.19;6185690;22;20128;-71
2022/01/02 01:03:01;;;;;;;3.17;2.97;;;;;;;-4.46;74.48;99179.28;6227704;22;20414;-72
2022/01/02 01:05:45;;;;;;;3.08;2.92;;;;;;;-4.50;74.37;99150.44;6185529;22;20054;-73
2022/01/02 01:08:31;;;;;;;3.00;2.80;;;;;;;-4.41;71.46;99157.16;6206496;22;20111;-71
2022/01/02 01:11:15;;;;;;;2.42;2.22;;;;;;;-4.41;71.92;99191.13;6272175;22;20455;-72
2022/01/02 01:14:00;;;;;;;2.45;2.28;;;;;;;-4.45;72.33;99191.16;6248333;22;20031;-72
2022/01/02 01:16:44;;;;;;;2.17;2.08;;;;;;;-4.45;72.59;99181.78;6272021;22;20031;-71
2022/01/02 01:19:36;;;;;;;2.20;2.10;;;;;;;-4.43;72.67;99195.38;6229512;22;20514;-72
2022/01/02 01:22:20;;;;;;;2.35;2.17;;;;;;;-4.48;73.04;99202.19;6249528;22;20030;-72
2022/01/02 01:25:16;;;;;;;2.28;2.17;;;;;;;-4.46;72.85;99197.94;6249115;22;20478;-72
2022/01/02 01:28:02;;;;;;;3.05;2.85;;;;;;;-4.46;72.94;99200.50;6229840;22;20035;-71
2022/01/02 01:30:49;;;;;;;2.20;2.10;;;;;;;-4.46;73.42;99209.84;6228577;22;20026;-71
2022/01/02 01:33:33;;;;;;;3.38;3.17;;;;;;;-4.50;74.35;99216.63;6272599;22;20114;-72
2022/01/02 01:36:18;;;;;;;3.60;3.30;;;;;;;-4.48;74.26;99199.63;6248867;22;20031;-71
2022/01/02 01:39:04;;;;;;;2.63;2.53;;;;;;;-4.49;74.73;99199.66;6249068;22;20088;-71
2022/01/02 01:41:49;;;;;;;2.42;2.33;;;;;;;-4.51;75.16;99197.13;6248678;22;20030;-73
2022/01/02 01:47:26;;;;;;;2.83;2.72;;;;;;;-4.53;76.63;99216.66;6251864;22;20030;-71
2022/01/02 01:50:12;;;;;;;2.88;2.67;;;;;;;-4.52;77.36;99220.06;6251343;22;20434;-71
2022/01/02 01:52:56;;;;;;;2.10;2.00;;;;;;;-4.64;76.74;99220.94;6250702;22;20027;-72
2022/01/02 01:55:43;;;;;;;2.92;2.72;;;;;;;-4.81;72.58;99212.56;6274128;22;20027;-73
2022/01/02 01:58:28;;;;;;;4.10;2.97;;;;;;;-4.88;72.17;99221.06;6250035;22;20034;-71
2022/01/02 02:01:12;;;;;;;2.95;2.72;;;;;;;-4.96;71.73;99194.78;6207200;22;20400;-71
2022/01/02 02:04:07;;;;;;;2.20;2.10;;;;;;;-4.97;71.38;99205.78;6230937;22;20026;-71
2022/01/02 02:06:54;;;;;;;1.80;1.80;;;;;;;-4.98;71.53;99222.78;6274007;22;20026;-70
2022/01/02 02:10:24;;;;;;;1.83;1.80;;;;;;;-4.98;72.00;99214.31;6251488;22;20498;-72
2022/01/02 02:12:51;;;;;;;2.70;2.50;;;;;;;-4.98;72.18;99212.63;6251439;22;20027;-71
2022/01/02 02:15:36;;;;;;;2.35;2.25;;;;;;;-5.00;71.80;99215.97;6229872;22;20380;-71
2022/01/02 02:18:20;;;;;;;2.13;2.03;;;;;;;-4.98;72.11;99209.22;6274875;22;20027;-71
2022/01/02 02:21:06;;;;;;;1.95;1.85;;;;;;;-4.97;72.35;99200.72;6250809;22;20085;-71
2022/01/02 02:23:51;;;;;;;2.67;2.58;;;;;;;-4.99;72.29;99217.69;6251126;22;20116;-72
2022/01/02 02:26:38;;;;;;;2.55;2.38;;;;;;;-4.99;72.55;99208.38;6251237;22;20030;-71
2022/01/02 02:29:23;;;;;;;2.45;2.30;;;;;;;-4.96;72.78;99232.94;6251103;22;20502;-72
2022/01/02 02:32:07;;;;;;;2.33;2.22;;;;;;;-4.97;73.28;99224.47;6274092;22;20547;-71
2022/01/02 02:34:52;;;;;;;2.53;2.33;;;;;;;-5.02;73.45;99225.34;6229544;22;20145;-71
2022/01/02 02:37:41;;;;;;;2.47;2.38;;;;;;;-4.96;74.09;99238.88;6274542;22;20030;-72
2022/01/02 02:40:27;;;;;;;2.92;2.83;;;;;;;-4.94;74.28;99223.63;6274184;22;20636;-71
2022/01/02 02:49:17;;;;;;;2.90;2.70;;;;;;;-4.88;75.17;99234.63;6235491;22;20518;-71
2022/01/02 02:52:09;;;;;;;2.35;2.25;;;;;;;-4.82;74.31;99256.66;6273853;22;20058;-71
2022/01/02 02:54:55;;;;;;;2.10;2.00;;;;;;;-4.81;74.18;99263.44;6250049;22;20099;-71
2022/01/02 02:57:41;;;;;;;3.67;2.58;;;;;;;-4.83;73.86;99226.97;6250933;22;20380;-72
2022/01/02 03:00:27;;;;;;;3.80;2.25;;;;;;;-4.85;74.58;99272.78;6273579;22;20048;-71
2022/01/02 03:03:12;;;;;;;3.08;2.80;;;;;;;-4.85;75.96;99277.03;6273941;22;20114;-71
2022/01/02 03:05:56;;;;;;;2.05;1.95;;;;;;;-4.90;75.71;99264.31;6250513;22;20364;-71
2022/01/02 03:08:42;;;;;;;2.88;2.63;;;;;;;-4.89;73.50;99285.50;6229551;22;20030;-71
2022/01/02 03:11:29;;;;;;;2.67;2.50;;;;;;;-4.92;74.23;99270.25;6250682;22;20026;-72
2022/01/02 03:14:14;;;;;;;3.03;2.83;;;;;;;-4.93;74.20;99268.56;6250735;22;20034;-72
2022/01/02 03:17:03;;;;;;;2.67;2.47;;;;;;;-4.91;73.99;99310.13;6250186;22;20106;-72
2022/01/02 03:19:47;;;;;;;2.40;2.30;;;;;;;-4.91;74.87;99298.22;6228749;22;20036;-72
2022/01/02 03:22:34;;;;;;;3.13;2.92;;;;;;;-4.93;75.47;99296.53;6250874;22;20375;-71
2022/01/02 03:25:19;;;;;;;2.92;2.72;;;;;;;-4.95;75.56;99305.88;6207484;22;20031;-72
2022/01/02 03:28:04;;;;;;;2.50;2.35;;;;;;;-4.96;74.67;99294.00;6250440;22;20135;-72
2022/01/02 03:30:49;;;;;;;3.40;3.10;;;;;;;-4.99;75.15;99320.31;6273333;22;20026;-72
2022/01/02 03:33:33;;;;;;;2.63;2.53;;;;;;;-4.95;74.50;99316.06;6229545;22;20425;-72
2022/01/02 03:36:18;;;;;;;2.22;2.10;;;;;;;-4.98;75.00;99328.81;6250778;22;20506;-71
2022/01/02 03:39:03;;;;;;;2.38;2.28;;;;;;;-4.98;74.69;99341.53;6250794;22;20533;-71
2022/01/02 03:41:49;;;;;;;2.60;2.40;;;;;;;-4.96;74.80;99329.63;6250149;22;20414;-71
2022/01/02 03:44:34;;;;;;;3.17;2.80;;;;;;;-5.00;74.11;99317.75;6250201;22;20045;-71
2022/01/02 03:47:20;;;;;;;4.38;3.22;;;;;;;-5.03;72.64;99322.84;6250840;22;20089;-73
2022/01/02 03:50:06;;;;;;;3.33;2.70;;;;;;;-5.04;72.70;99339.81;6249830;22;20148;-73
2022/01/02 03:52:50;;;;;;;3.25;2.95;;;;;;;-5.11;73.42;99309.31;6273265;22;20062;-71
2022/01/02 03:55:35;;;;;;;2.85;2.65;;;;;;;-5.06;72.52;99348.31;6250167;22;20486;-73
2022/01/02 03:58:20;;;;;;;2.92;2.63;;;;;;;-5.12;72.04;99351.69;6250303;22;20188;-72
2022/01/02 04:01:04;;;;;;;2.65;2.50;;;;;;;-5.07;72.74;99349.16;6272913;22;20030;-72
2022/01/02 04:03:49;;;;;;;2.33;2.13;;;;;;;-5.13;72.45;99346.59;6250040;22;20085;-71
2022/01/02 04:06:33;;;;;;;2.80;2.60;;;;;;;-5.06;73.86;99373.75;6228972;22;20407;-72
2022/01/02 04:09:18;;;;;;;2.95;2.72;;;;;;;-5.10;72.15;99369.50;6229276;22;20086;-72
2022/01/02 04:12:04;;;;;;;4.47;2.75;;;;;;;-5.15;70.37;99348.31;6250193;22;20081;-71
2022/01/02 04:14:50;;;;;;;2.83;2.63;;;;;;;-5.19;71.21;99354.25;6249872;22;20137;-71
2022/01/02 04:17:35;;;;;;;2.42;2.30;;;;;;;-5.19;70.23;99369.50;6272523;22;20502;-71
2022/01/02 04:20:20;;;;;;;3.30;3.00;;;;;;;-5.20;71.01;99320.31;6272954;22;20086;-71
2022/01/02 04:23:04;;;;;;;2.63;2.25;;;;;;;-5.18;72.11;99363.56;6249665;22;20030;-70
2022/01/02 04:25:49;;;;;;;2.38;2.28;;;;;;;-5.25;72.00;99357.63;6251778;22;20030;-72
2022/01/02 04:28:34;;;;;;;2.60;2.40;;;;;;;-5.24;72.29;99350.88;6273006;22;20201;-73
2022/01/02 04:31:19;;;;;;;2.97;2.70;;;;;;;-5.23;70.36;99358.47;6249935;22;20376;-72
2022/01/02 04:34:04;;;;;;;2.70;2.50;;;;;;;-5.25;70.83;99357.63;6249256;22;20030;-72
2022/01/02 04:36:48;;;;;;;2.63;2.45;;;;;;;-5.26;71.25;99377.13;6247820;22;20030;-71
2022/01/02 04:39:34;;;;;;;3.22;2.92;;;;;;;-5.26;71.60;99387.31;6249771;22;20034;-72
2022/01/02 04:42:20;;;;;;;2.95;2.75;;;;;;;-5.29;72.54;99389.00;6274840;22;20098;-72
2022/01/02 04:45:07;;;;;;;2.55;2.45;;;;;;;-5.28;72.53;99383.06;6271872;22;20058;-72
2022/01/02 04:47:53;;;;;;;2.42;2.33;;;;;;;-5.32;72.27;99387.31;6248619;22;20533;-72
2022/01/02 04:50:39;;;;;;;2.35;2.25;;;;;;;-5.37;72.56;99383.94;6248205;22;20030;-72
2022/01/02 04:53:23;;;;;;;2.60;2.42;;;;;;;-5.37;72.75;99389.00;6249250;22;20085;-72
2022/01/02 04:56:10;;;;;;;2.55;2.35;;;;;;;-5.38;72.53;99397.47;6227343;22;20230;-72
2022/01/02 04:58:57;;;;;;;7.72;2.45;;;;;;;-5.37;73.07;99399.19;6248284;22;20030;-72
2022/01/02 05:01:42;;;;;;;2.78;2.38;;;;;;;-5.42;73.39;99395.75;6271297;22;20486;-73
2022/01/02 05:04:27;;;;;;;2.88;2.47;;;;;;;-5.45;73.31;99380.50;6227106;22;20455;-73
2022/01/02 05:07:13;;;;;;;2.65;2.40;;;;;;;-5.52;72.98;99394.06;6227121;22;20027;-74
2022/01/02 05:10:00;;;;;;;3.63;2.10;;;;;;;-5.54;72.26;99400.84;6247608;22;20042;-74
2022/01/02 05:12:45;;;;;;;1.73;1.73;;;;;;;-5.60;71.52;99399.97;6226389;22;20363;-73
2022/01/02 05:15:30;;;;;;;2.03;1.92;;;;;;;-5.57;71.03;99379.66;6247673;22;20152;-73
2022/01/02 05:18:15;;;;;;;1.95;1.83;;;;;;;-5.62;71.54;99417.75;6247113;22;20034;-73
2022/01/02 05:20:59;;;;;;;1.90;1.80;;;;;;;-5.66;70.57;99413.50;6247711;22;20479;-73
2022/01/02 05:23:44;;;;;;;1.98;1.88;;;;;;;-5.60;70.92;99425.41;6248297;22;20093;-74
2022/01/02 05:26:29;;;;;;;3.53;2.20;;;;;;;-5.66;70.94;99399.97;6248439;22;20491;-73
2022/01/02 05:29:15;;;;;;;2.40;2.20;;;;;;;-5.63;71.45;99410.13;6227285;22;20517;-72
2022/01/02 05:32:00;;;;;;;2.50;2.40;;;;;;;-5.64;72.59;99418.59;6248144;22;20030;-73
2022/01/02 05:34:45;;;;;;;3.17;2.85;;;;;;;-5.67;73.42;99422.00;6227710;22;20099;-73
2022/01/02 05:37:30;;;;;;;2.00;1.90;;;;;;;-5.69;76.48;99421.13;6272475;22;20030;-74
2022/01/02 05:40:14;;;;;;;3.72;3.42;;;;;;;-5.82;79.10;99440.56;6249239;22;20039;-73
2022/01/02 05:43:00;;;;;;;3.53;3.25;;;;;;;-5.89;81.15;99453.28;6249586;22;20491;-74
2022/01/02 05:45:45;;;;;;;3.90;3.60;;;;;;;-5.94;82.09;99442.25;6249103;22;20478;-74
2022/01/02 05:48:30;;;;;;;5.95;3.53;;;;;;;-5.92;81.01;99454.09;6249457;22;20027;-74
2022/01/02 05:51:15;;;;;;;2.50;2.40;;;;;;;-5.91;80.17;99455.81;6249141;22;20031;-74
2022/01/02 05:54:00;;;;;;;2.67;2.45;;;;;;;-5.91;79.54;99462.56;6228137;22;20027;-75
2022/01/02 05:56:45;;;;;;;3.60;3.10;;;;;;;-5.88;77.07;99495.63;6272268;22;20027;-73
2022/01/02 05:59:29;;;;;;;2.53;2.28;;;;;;;-5.88;75.42;99465.97;6272203;22;20030;-73
2022/01/02 06:02:14;;;;;;;2.95;2.05;;;;;;;-5.89;76.57;99478.69;6272163;22;20541;-73
2022/01/02 06:05:06;;;;;;;3.28;3.08;;;;;;;-6.05;77.34;99482.00;6227747;22;20077;-74
2022/01/02 06:07:52;;;;;;;2.35;2.25;;;;;;;-6.28;78.12;99459.00;6249423;22;20031;-74
2022/01/02 06:10:37;;;;;;;2.35;2.25;;;;;;;-6.22;78.59;99491.22;6249087;22;20026;-74
2022/01/02 06:13:22;;;;;;;2.80;2.60;;;;;;;-6.19;78.49;99479.38;6272214;22;20376;-73
2022/01/02 06:16:08;;;;;;;3.72;2.85;;;;;;;-6.15;76.61;99478.53;6248810;22;20030;-73
2022/01/02 06:18:53;;;;;;;2.60;2.30;;;;;;;-6.19;72.92;99478.53;6227686;22;20031;-74
2022/01/02 06:21:38;;;;;;;2.70;2.50;;;;;;;-6.19;73.72;99479.38;6249387;22;20027;-74
2022/01/02 06:24:23;;;;;;;2.50;2.35;;;;;;;-6.21;75.09;99496.28;6228641;22;20368;-74
2022/01/02 06:27:10;;;;;;;4.63;2.75;;;;;;;-6.32;76.33;99502.16;6228295;22;20031;-74
2022/01/02 06:29:55;;;;;;;3.13;2.92;;;;;;;-6.40;77.14;99505.47;6250437;22;20372;-74
2022/01/02 06:32:40;;;;;;;3.00;2.70;;;;;;;-6.38;77.04;99506.31;6231211;22;20031;-74
2022/01/02 06:35:25;;;;;;;3.20;3.00;;;;;;;-6.37;77.61;99525.81;6254098;22;20372;-74
2022/01/02 06:38:15;;;;;;;3.00;2.80;;;;;;;-6.52;74.96;99495.25;6231279;22;20031;-75
2022/01/02 06:41:06;;;;;;;5.30;2.70;;;;;;;-6.44;72.30;99513.06;6230360;22;20035;-75
2022/01/02 06:43:52;;;;;;;2.95;2.75;;;;;;;-6.48;73.49;99517.25;6274665;22;20054;-72
2022/01/02 06:46:40;;;;;;;6.80;2.38;;;;;;;-6.51;73.56;99496.94;6251186;22;20081;-73
2022/01/02 06:49:26;;;;;;;3.67;3.38;;;;;;;-6.48;74.93;99507.09;6254389;22;20026;-74
2022/01/02 06:52:11;;;;;;;2.67;2.47;;;;;;;-6.39;75.44;99522.41;6242401;22;20050;-73
2022/01/02 06:54:55;;;;;;;2.78;2.58;;;;;;;-6.50;77.14;99513.88;6285309;22;20079;-74
2022/01/02 06:57:40;;;;;;;3.72;3.08;;;;;;;-6.55;77.24;99523.16;6262171;22;20027;-74
2022/01/02 07:00:33;;;;;;;3.67;2.92;;;;;;;-6.56;75.44;99539.19;6260208;22;20077;-74
2022/01/02 07:03:17;;;;;;;2.95;2.72;;;;;;;-6.48;76.24;99532.47;6257369;22;20030;-70
2022/01/02 07:06:02;;;;;;;3.00;2.80;;;;;;;-6.45;76.68;99535.06;6252875;22;20427;-74
2022/01/02 07:08:50;;;;;;;2.65;2.45;;;;;;;-6.42;76.39;99537.63;6252702;22;20026;-73
2022/01/02 07:11:35;;;;;;;7.93;2.83;;;;;;;-6.42;74.64;99544.41;6251620;22;20051;-74
2022/01/02 07:14:20;;;;;;;2.97;2.78;;;;;;;-6.40;73.30;99532.56;6274000;22;20042;-74
2022/01/02 07:17:07;;;;;;;1.88;1.77;;;;;;;-6.34;73.26;99533.44;6275310;22;20111;-76
2022/01/02 07:19:52;;;;;;;2.08;1.98;;;;;;;-6.32;71.88;99533.47;6220825;22;20110;-78
2022/01/02 07:22:50;;;;;;;1.90;1.80;;;;;;;-6.34;72.95;99545.28;6243930;22;20074;-77
2022/01/02 07:25:34;;;;;;;2.13;1.85;;;;;;;-6.43;73.01;99535.06;6222708;22;20813;-76
2022/01/02 07:28:21;;;;;;;4.35;2.20;;;;;;;-6.43;73.63;99530.00;6221396;22;20046;-76
2022/01/02 07:31:05;;;;;;;2.40;2.30;;;;;;;-6.34;74.80;99550.34;6182949;22;20141;-75
2022/01/02 07:33:50;;;;;;;1.70;1.60;;;;;;;-6.25;75.60;99549.59;6226555;22;20030;-76
2022/01/02 07:36:34;;;;;;;1.58;1.50;;;;;;;-6.35;76.49;99551.22;6249251;22;20035;-75
2022/01/02 07:39:22;;;;;;;3.10;2.90;;;;;;;-6.36;77.04;99557.13;6201477;22;20030;-77
2022/01/02 07:42:09;;;;;;;2.30;2.20;;;;;;;-6.35;77.44;99564.75;6249041;22;20026;-75
2022/01/02 07:45:04;;;;;;;2.80;2.60;;;;;;;-6.28;77.50;99564.81;6229130;22;20487;-75
2022/01/02 07:47:49;;;;;;;2.33;2.13;;;;;;;-6.43;77.56;99551.16;6207403;22;20065;-75
2022/01/02 07:50:36;;;;;;;2.63;2.15;;;;;;;-6.43;76.91;99556.22;6244489;22;20049;-76
2022/01/02 07:53:21;;;;;;;2.60;2.40;;;;;;;-6.35;76.90;99574.88;6228140;22;20027;-76
2022/01/02 07:56:06;;;;;;;2.83;2.67;;;;;;;-6.29;77.57;99576.66;6227300;22;20073;-75
2022/01/02 07:58:51;;;;;;;2.20;2.10;;;;;;;-6.24;78.13;99569.06;6227311;22;20380;-75
2022/01/02 08:01:35;;;;;;;1.77;1.67;;;;;;;-6.28;78.08;99573.25;6247029;22;20030;-75
2022/01/02 08:04:20;;;;;;;3.20;3.00;;;;;;;-6.47;79.00;99573.94;6224332;22;20351;-75
2022/01/02 08:07:10;;;;;;;2.05;1.95;;;;;;;-6.51;79.81;99585.75;6226656;22;20078;-75
2022/01/02 08:10:06;;;;;;;4.82;2.22;;;;;;;-6.40;79.68;99575.69;6268322;22;20133;-76
2022/01/02 08:12:51;;;;;;;2.42;2.33;;;;;;;-6.59;80.14;99554.41;6205776;22;20426;-76
2022/01/02 08:15:40;;;;;;;5.40;2.63;;;;;;;-6.28;80.50;99591.03;6225328;22;20027;-75
2022/01/02 08:18:26;;;;;;;2.28;2.17;;;;;;;-6.38;80.21;99569.78;6226249;22;20157;-80
2022/01/02 08:21:11;;;;;;;3.92;2.60;;;;;;;-6.32;80.24;99578.31;6203830;22;20027;-79
2022/01/02 08:23:55;;;;;;;1.70;1.70;;;;;;;-6.29;80.46;99585.94;6225561;22;20030;-75
2022/01/02 08:26:40;;;;;;;2.58;2.47;;;;;;;-6.47;80.85;99574.81;6204933;22;20031;-76
2022/01/02 08:29:30;;;;;;;7.97;1.73;;;;;;;-6.25;80.75;99590.22;6248387;22;20081;-76
2022/01/02 08:32:15;;;;;;;3.13;2.92;;;;;;;-6.37;80.93;99607.03;6226282;22;20035;-74
2022/01/02 08:35:02;;;;;;;2.15;2.05;;;;;;;-6.34;81.50;99612.16;6206257;22;20030;-77
2022/01/02 08:37:49;;;;;;;2.08;1.67;;;;;;;-6.42;80.90;99588.41;6187045;22;20181;-74
2022/01/02 08:40:39;;;;;;;1.95;1.85;;;;;;;-6.37;81.61;99607.03;6204751;22;20074;-76
2022/01/02 08:43:25;;;;;;;3.10;2.90;;;;;;;-6.38;81.57;99596.91;6204837;22;20034;-75
2022/01/02 08:46:11;;;;;;;2.78;2.67;;;;;;;-6.42;81.96;99597.69;6204786;22;20058;-75
2022/01/02 08:48:58;;;;;;;2.83;2.60;;;;;;;-6.46;81.67;99598.50;6184419;22;20030;-76
2022/01/02 08:51:46;;;;;;;2.58;2.40;;;;;;;-6.44;81.51;99612.03;6185525;22;20031;-77
2022/01/02 08:54:31;;;;;;;2.70;2.50;;;;;;;-6.53;81.76;99600.13;6228335;22;20495;-76
2022/01/02 08:57:16;;;;;;;2.20;2.10;;;;;;;-6.53;81.34;99602.69;6248231;22;20054;-77
2022/01/02 09:00:01;;;;;;;2.97;2.78;;;;;;;-6.49;79.56;99609.50;6247701;22;20494;-76
2022/01/02 09:02:47;;;;;;;3.40;3.10;;;;;;;-6.44;78.78;99609.50;6223869;22;20137;-75
2022/01/02 09:05:33;;;;;;;4.03;2.80;;;;;;;-6.36;78.53;99611.28;6202876;22;20114;-77
2022/01/02 09:08:20;;;;;;;2.80;2.60;;;;;;;-6.40;77.64;99611.25;6224825;22;20093;-74
2022/01/02 09:11:04;;;;;;;2.45;2.35;;;;;;;-6.28;77.87;99621.50;6223898;22;20034;-75
2022/01/02 09:13:49;;;;;;;2.08;1.98;;;;;;;-6.16;77.66;99605.53;6244511;22;20637;-76
2022/01/02 09:16:34;;;;;;;2.40;2.20;;;;;;;-6.20;76.88;99601.25;6269893;22;20066;-76
2022/01/02 09:19:18;;;;;;;2.85;2.75;;;;;;;-6.11;77.75;99597.09;6246684;22;20379;-74
2022/01/02 09:22:03;;;;;;;2.40;2.30;;;;;;;-5.98;76.89;99590.41;6246244;22;20073;-78
2022/01/02 09:24:49;;;;;;;3.63;2.45;;;;;;;-6.04;76.97;99603.91;6203968;22;20118;-77
2022/01/02 09:27:34;;;;;;;3.05;2.75;;;;;;;-6.23;76.13;99596.16;6270022;22;20058;-77
2022/01/02 09:30:27;;;;;;;1.45;1.45;;;;;;;-6.13;76.28;99605.53;6271133;22;20030;-76
2022/01/02 09:33:15;;;;;;;3.22;3.03;;;;;;;-6.32;75.88;99593.56;6228230;22;20081;-75
2022/01/02 09:36:01;;;;;;;2.85;2.67;;;;;;;-6.24;74.28;99586.81;6223905;22;20127;-77
2022/01/02 09:38:47;;;;;;;2.65;2.50;;;;;;;-6.31;74.85;99559.72;6225509;22;20062;-75
2022/01/02 09:41:34;;;;;;;2.60;2.40;;;;;;;-6.36;73.73;99568.13;6246665;22;20074;-75
2022/01/02 09:44:19;;;;;;;3.17;2.88;;;;;;;-6.30;74.95;99582.56;6224767;22;20026;-76
2022/01/02 09:47:08;;;;;;;2.25;2.13;;;;;;;-6.36;74.91;99547.81;6228453;22;20073;-75
2022/01/02 09:49:52;;;;;;;2.40;2.30;;;;;;;-6.24;74.22;99569.06;6205002;22;20419;-76
2022/01/02 09:52:37;;;;;;;2.72;2.45;;;;;;;-6.26;73.81;99568.19;6226286;22;20031;-75
2022/01/02 09:55:06;;;;;;;2.85;2.65;;;;;;;-6.28;74.38;99574.97;6144116;22;20019;-77
2022/01/02 09:57:33;;;;;;;2.55;2.40;;;;;;;-6.26;73.50;99583.44;6242843;22;20019;-75
2022/01/02 09:59:59;;;;;;;2.65;2.45;;;;;;;-6.34;74.00;99574.06;6192680;22;20035;-75
2022/01/02 10:02:28;;;;;;;2.70;2.60;;;;;;;-6.40;75.91;99576.56;6244098;22;20028;-76
2022/01/02 10:05:04;;;;;;;4.28;3.90;;;;;;;-6.30;73.15;99587.63;6194744;22;20110;-76
2022/01/02 10:07:33;;;;;;;2.60;2.47;;;;;;;-6.32;72.93;99578.31;6196669;22;20110;-76
2022/01/02 10:10:10;;;;;;;2.72;2.30;;;;;;;-6.04;73.23;99587.81;6246042;22;20021;-76
2022/01/02 10:12:37;;;;;;;2.53;2.40;;;;;;;-6.14;73.31;99570.81;6142740;22;20026;-75
2022/01/02 10:15:20;;;;;;;3.92;3.63;;;;;;;-6.41;72.76;99564.69;6171855;22;20027;-78
2022/01/02 10:17:57;;;;;;;4.88;2.60;;;;;;;-6.22;73.41;99590.25;6173015;22;20019;-78
2022/01/02 10:20:47;;;;;;;2.85;2.65;;;;;;;-6.23;73.46;99588.53;6234078;22;20026;-77
2022/01/02 10:23:22;;;;;;;2.78;2.58;;;;;;;-6.43;72.86;99571.47;6244897;22;20098;-78
2022/01/02 10:26:04;;;;;;;2.70;2.53;;;;;;;-6.28;73.62;99590.19;6198611;22;20054;-79
2022/01/02 10:28:51;;;;;;;3.58;2.80;;;;;;;-6.18;72.93;99607.22;6185302;22;20038;-79
2022/01/02 10:31:44;;;;;;;3.28;3.08;;;;;;;-6.32;73.25;99611.31;6276700;22;20020;-78
2022/01/02 10:34:11;;;;;;;2.47;1.85;;;;;;;-6.16;73.34;99621.63;6274320;22;20492;-78
2022/01/02 10:36:42;;;;;;;2.03;1.92;;;;;;;-6.18;73.08;99610.56;6170594;22;20038;-79
2022/01/02 10:39:12;;;;;;;2.40;2.30;;;;;;;-6.24;73.22;99614.75;6220006;22;20023;-79
2022/01/02 10:41:43;;;;;;;2.70;2.50;;;;;;;-6.39;73.33;99602.81;6247303;22;20069;-75
2022/01/02 10:44:26;;;;;;;3.25;2.85;;;;;;;-6.35;72.94;99617.22;6245163;22;20027;-75
2022/01/02 10:47:14;;;;;;;2.50;2.33;;;;;;;-6.24;73.56;99640.16;6270833;22;20455;-75
2022/01/02 10:50:02;;;;;;;3.00;1.85;;;;;;;-6.17;73.63;99634.28;6244501;22;20020;-75
2022/01/02 10:52:34;;;;;;;3.08;2.88;;;;;;;-6.30;73.87;99613.03;6244307;22;20027;-75
2022/01/02 10:55:13;;;;;;;2.42;2.22;;;;;;;-6.19;73.73;99636.84;6246097;22;20460;-76
2022/01/02 10:57:42;;;;;;;2.47;2.33;;;;;;;-6.18;73.11;99635.97;6271556;22;20037;-77
2022/01/02 11:00:10;;;;;;;2.28;2.17;;;;;;;-6.17;73.63;99639.38;6195553;22;20027;-76
2022/01/02 11:02:38;;;;;;;2.42;2.22;;;;;;;-6.27;73.66;99647.75;6195338;22;20054;-80
2022/01/02 11:05:10;;;;;;;1.95;1.85;;;;;;;-6.28;74.28;99646.88;6219061;22;20102;-75
2022/01/02 11:08:03;;;;;;;2.47;2.38;;;;;;;-6.24;74.49;99645.22;6195545;22;20042;-79
2022/01/02 11:10:33;;;;;;;2.95;2.75;;;;;;;-6.23;73.26;99657.09;6246660;22;20040;-76
2022/01/02 11:13:00;;;;;;;3.10;2.90;;;;;;;-6.31;72.95;99651.13;6221784;22;20023;-76
2022/01/02 11:15:27;;;;;;;3.53;3.33;;;;;;;-6.29;72.36;99659.59;6273388;22;20411;-75
2022/01/02 11:17:53;;;;;;;3.33;2.85;;;;;;;-6.27;72.28;99653.69;6196370;22;20336;-78
2022/01/02 11:20:21;;;;;;;3.35;3.05;;;;;;;-6.31;72.59;99658.72;6223142;22;20027;-79
2022/01/02 11:23:00;;;;;;;3.50;2.93;;;;;;;-6.25;72.66;99657.09;6223827;22;20301;-74
2022/01/02 11:25:34;;;;;;;2.85;2.50;;;;;;;-6.23;71.86;99657.09;6223455;22;20364;-78
2022/01/02 11:28:05;;;;;;;3.15;2.90;;;;;;;-6.32;72.26;99637.56;6246640;22;20043;-76
2022/01/02 11:30:34;;;;;;;3.03;2.83;;;;;;;-6.26;72.65;99644.38;6248545;22;20440;-77
2022/01/02 11:33:12;;;;;;;2.60;2.50;;;;;;;-6.26;71.44;99652.84;6274188;22;20020;-77
2022/01/02 14:33:55;;;;;;;3.63;2.60;;;;;;;-6.45;76.55;99663.69;6268066;22;20184;-75
2022/01/02 14:36:21;;;;;;;2.75;2.55;;;;;;;-6.45;76.40;99661.13;6244924;22;20073;-77
2022/01/02 14:38:48;;;;;;;2.03;1.92;;;;;;;-6.47;76.07;99666.19;6244860;22;20571;-76
2022/01/02 14:41:17;;;;;;;3.08;2.88;;;;;;;-6.47;76.72;99676.34;6218267;22;20221;-78
2022/01/02 14:43:49;;;;;;;3.00;2.80;;;;;;;-6.46;75.92;99672.97;6244623;22;20039;-77
2022/01/02 14:46:16;;;;;;;2.58;2.47;;;;;;;-6.46;75.00;99672.97;6244892;22;20015;-77
2022/01/02 14:48:45;;;;;;;2.25;2.15;;;;;;;-6.49;75.98;99672.94;6220171;22;20111;-77
2022/01/02 14:51:11;;;;;;;3.13;2.40;;;;;;;-6.43;75.09;99665.38;6245155;22;20022;-77
2022/01/02 14:53:40;;;;;;;2.38;2.20;;;;;;;-6.45;75.23;99669.59;6239076;22;20126;-78
2022/01/02 14:56:08;;;;;;;1.65;1.65;;;;;;;-6.46;74.88;99672.97;6245902;22;20020;-81
2022/01/02 14:58:35;;;;;;;2.35;2.25;;;;;;;-6.44;75.57;99663.66;6218740;22;20306;-78
2022/01/02 15:01:03;;;;;;;2.10;2.00;;;;;;;-6.51;75.97;99654.28;6240157;22;20376;-79
2022/01/02 15:03:29;;;;;;;2.97;2.78;;;;;;;-6.44;74.28;99666.22;6192786;22;20023;-81
2022/01/02 15:05:58;;;;;;;1.98;1.88;;;;;;;-6.48;73.64;99656.84;6239319;22;20551;-79
2022/01/02 15:08:26;;;;;;;2.50;2.40;;;;;;;-6.42;73.90;99667.09;6245701;22;20028;-80
2022/01/02 15:10:53;;;;;;;1.70;1.70;;;;;;;-6.54;73.56;99654.25;6173929;22;20703;-82
2022/01/02 15:13:19;;;;;;;4.13;2.70;;;;;;;-6.49;74.11;99670.41;6170519;22;20020;-82
2022/01/02 15:15:45;;;;;;;2.03;1.90;;;;;;;-6.62;73.55;99638.13;6176416;22;20099;-82
2022/01/02 15:18:11;;;;;;;3.70;1.90;;;;;;;-6.57;75.08;99645.75;6197751;22;20033;-81
2022/01/02 15:20:39;;;;;;;2.28;2.17;;;;;;;-6.60;76.06;99644.06;6151197;22;20023;-81
2022/01/02 15:23:06;;;;;;;3.58;3.28;;;;;;;-6.53;76.83;99668.66;6175364;22;20114;-78
2022/01/02 15:25:33;;;;;;;2.60;2.45;;;;;;;-6.76;76.60;99626.13;6224765;22;20372;-80
2022/01/02 15:28:06;;;;;;;2.00;1.90;;;;;;;-6.63;76.89;99649.09;6229402;22;20019;-80
2022/01/02 15:30:32;;;;;;;2.17;2.08;;;;;;;-6.58;77.06;99647.47;6204190;22;20023;-79
2022/01/02 15:32:59;;;;;;;2.38;2.17;;;;;;;-6.60;76.77;99651.66;6279920;22;20084;-79
2022/01/02 15:35:31;;;;;;;2.88;2.67;;;;;;;-6.62;77.23;99648.28;6249770;22;20551;-77
2022/01/02 15:37:58;;;;;;;3.05;2.85;;;;;;;-6.61;76.69;99642.34;6145124;22;20114;-77
2022/01/02 15:40:24;;;;;;;2.10;2.00;;;;;;;-6.60;77.04;99656.75;6246869;22;20328;-76
2022/01/02 15:42:50;;;;;;;3.15;2.95;;;;;;;-6.56;76.81;99645.78;6213914;22;20031;-78
2022/01/02 15:45:17;;;;;;;3.55;3.30;;;;;;;-6.56;76.63;99650.88;6243514;22;20015;-78
2022/01/02 15:47:49;;;;;;;2.45;2.35;;;;;;;-6.58;77.51;99642.41;6221068;22;20027;-77
2022/01/02 15:50:16;;;;;;;2.45;2.17;;;;;;;-6.59;78.06;99650.84;6145840;22;20703;-78
2022/01/02 15:52:43;;;;;;;2.28;2.17;;;;;;;-6.57;78.40;99654.22;6219668;22;20039;-77
2022/01/02 15:55:10;;;;;;;3.00;2.80;;;;;;;-6.63;78.41;99644.03;6162573;22;20026;-80